sensor_id;sensor_type;location;lat;lon;timestamp;P1;durP1;ratioP1;P2;durP2;ratioP2
75939;SDS011;75809;44.872;20.642;2024-02-16T00:00:57;70.20;;;32.08;;
75939;SDS011;75809;44.872;20.642;2024-02-16T00:03:24;72.32;;;32.03;;
75939;SDS011;75809;44.872;20.642;2024-02-16T00:05:50;85.25;;;38.58;;
75939;SDS011;75809;44.872;20.642;2024-02-16T00:08:17;81.78;;;40.05;;
75939;SDS011;75809;44.872;20.642;2024-02-16T00:10:43;85.55;;;39.75;;
75939;SDS011;75809;44.872;20.642;2024-02-16T00:13:08;92.55;;;42.55;;
75939;SDS011;75809;44.872;20.642;2024-02-16T00:15:34;99.35;;;44.95;;
75939;SDS011;75809;44.872;20.642;2024-02-16T00:17:59;100.93;;;47.63;;
75939;SDS011;75809;44.872;20.642;2024-02-16T00:20:25;97.65;;;46.25;;
75939;SDS011;75809;44.872;20.642;2024-02-16T00:22:50;107.18;;;47.30;;
75939;SDS011;75809;44.872;20.642;2024-02-16T00:25:16;97.07;;;44.28;;
75939;SDS011;75809;44.872;20.642;2024-02-16T00:27:43;101.38;;;47.08;;
75939;SDS011;75809;44.872;20.642;2024-02-16T00:30:08;112.20;;;49.10;;
75939;SDS011;75809;44.872;20.642;2024-02-16T00:32:35;129.48;;;56.92;;
75939;SDS011;75809;44.872;20.642;2024-02-16T00:35:02;117.07;;;52.38;;
75939;SDS011;75809;44.872;20.642;2024-02-16T00:37:28;109.13;;;48.88;;
75939;SDS011;75809;44.872;20.642;2024-02-16T00:39:53;103.68;;;47.03;;
75939;SDS011;75809;44.872;20.642;2024-02-16T00:42:20;88.30;;;40.53;;
75939;SDS011;75809;44.872;20.642;2024-02-16T00:44:48;98.22;;;44.25;;
75939;SDS011;75809;44.872;20.642;2024-02-16T00:47:14;104.10;;;48.15;;
75939;SDS011;75809;44.872;20.642;2024-02-16T00:49:41;95.30;;;44.47;;
75939;SDS011;75809;44.872;20.642;2024-02-16T00:52:07;104.57;;;46.50;;
75939;SDS011;75809;44.872;20.642;2024-02-16T00:54:35;103.20;;;45.45;;
75939;SDS011;75809;44.872;20.642;2024-02-16T00:57:01;96.63;;;47.05;;
75939;SDS011;75809;44.872;20.642;2024-02-16T00:59:28;95.85;;;45.45;;
75939;SDS011;75809;44.872;20.642;2024-02-16T01:01:54;88.90;;;41.67;;
75939;SDS011;75809;44.872;20.642;2024-02-16T01:04:19;88.88;;;41.00;;
75939;SDS011;75809;44.872;20.642;2024-02-16T01:06:45;96.07;;;44.25;;
75939;SDS011;75809;44.872;20.642;2024-02-16T01:09:11;94.78;;;43.30;;
75939;SDS011;75809;44.872;20.642;2024-02-16T01:11:38;106.03;;;47.38;;
75939;SDS011;75809;44.872;20.642;2024-02-16T01:14:06;106.47;;;49.28;;
75939;SDS011;75809;44.872;20.642;2024-02-16T01:16:32;104.65;;;47.47;;
75939;SDS011;75809;44.872;20.642;2024-02-16T01:18:57;112.15;;;48.78;;
75939;SDS011;75809;44.872;20.642;2024-02-16T01:21:23;100.40;;;44.53;;
75939;SDS011;75809;44.872;20.642;2024-02-16T01:23:48;98.40;;;45.17;;
75939;SDS011;75809;44.872;20.642;2024-02-16T01:26:14;100.47;;;48.28;;
75939;SDS011;75809;44.872;20.642;2024-02-16T01:28:40;77.18;;;35.15;;
75939;SDS011;75809;44.872;20.642;2024-02-16T01:31:06;55.63;;;27.98;;
75939;SDS011;75809;44.872;20.642;2024-02-16T01:33:31;63.70;;;28.75;;
75939;SDS011;75809;44.872;20.642;2024-02-16T01:35:59;34.83;;;17.48;;
75939;SDS011;75809;44.872;20.642;2024-02-16T01:38:25;38.67;;;19.33;;
75939;SDS011;75809;44.872;20.642;2024-02-16T01:40:51;34.95;;;17.30;;
75939;SDS011;75809;44.872;20.642;2024-02-16T01:43:19;35.20;;;14.95;;
75939;SDS011;75809;44.872;20.642;2024-02-16T01:45:45;36.95;;;17.33;;
75939;SDS011;75809;44.872;20.642;2024-02-16T01:48:11;37.65;;;16.02;;
75939;SDS011;75809;44.872;20.642;2024-02-16T01:50:38;42.53;;;20.63;;
75939;SDS011;75809;44.872;20.642;2024-02-16T01:53:04;32.40;;;14.02;;
75939;SDS011;75809;44.872;20.642;2024-02-16T01:55:29;33.58;;;15.45;;
75939;SDS011;75809;44.872;20.642;2024-02-16T01:57:55;42.20;;;19.40;;
75939;SDS011;75809;44.872;20.642;2024-02-16T02:00:23;46.33;;;21.63;;
75939;SDS011;75809;44.872;20.642;2024-02-16T02:02:49;43.70;;;19.27;;
75939;SDS011;75809;44.872;20.642;2024-02-16T02:05:15;34.53;;;15.60;;
75939;SDS011;75809;44.872;20.642;2024-02-16T02:07:41;29.48;;;14.13;;
75939;SDS011;75809;44.872;20.642;2024-02-16T02:10:08;31.88;;;15.35;;
75939;SDS011;75809;44.872;20.642;2024-02-16T02:12:33;42.13;;;20.33;;
75939;SDS011;75809;44.872;20.642;2024-02-16T02:14:59;66.47;;;31.17;;
75939;SDS011;75809;44.872;20.642;2024-02-16T02:17:25;51.97;;;22.85;;
75939;SDS011;75809;44.872;20.642;2024-02-16T02:19:50;85.63;;;38.70;;
75939;SDS011;75809;44.872;20.642;2024-02-16T02:22:16;98.00;;;45.45;;
75939;SDS011;75809;44.872;20.642;2024-02-16T02:24:42;114.18;;;55.20;;
75939;SDS011;75809;44.872;20.642;2024-02-16T02:27:11;106.78;;;48.05;;
75939;SDS011;75809;44.872;20.642;2024-02-16T02:29:38;112.13;;;52.92;;
75939;SDS011;75809;44.872;20.642;2024-02-16T02:32:04;101.35;;;46.40;;
75939;SDS011;75809;44.872;20.642;2024-02-16T02:34:29;94.85;;;41.13;;
75939;SDS011;75809;44.872;20.642;2024-02-16T02:36:55;76.60;;;36.67;;
75939;SDS011;75809;44.872;20.642;2024-02-16T02:39:20;73.82;;;33.60;;
75939;SDS011;75809;44.872;20.642;2024-02-16T02:41:46;57.30;;;27.38;;
75939;SDS011;75809;44.872;20.642;2024-02-16T02:44:12;57.85;;;26.15;;
75939;SDS011;75809;44.872;20.642;2024-02-16T02:46:38;52.78;;;25.25;;
75939;SDS011;75809;44.872;20.642;2024-02-16T02:49:03;49.60;;;25.42;;
75939;SDS011;75809;44.872;20.642;2024-02-16T02:51:29;58.42;;;26.00;;
75939;SDS011;75809;44.872;20.642;2024-02-16T02:53:55;52.90;;;26.13;;
75939;SDS011;75809;44.872;20.642;2024-02-16T02:56:21;62.60;;;29.00;;
75939;SDS011;75809;44.872;20.642;2024-02-16T02:58:46;57.67;;;26.92;;
75939;SDS011;75809;44.872;20.642;2024-02-16T03:01:12;51.15;;;23.63;;
75939;SDS011;75809;44.872;20.642;2024-02-16T03:03:38;54.22;;;24.98;;
75939;SDS011;75809;44.872;20.642;2024-02-16T03:06:04;62.75;;;27.90;;
75939;SDS011;75809;44.872;20.642;2024-02-16T03:08:31;64.75;;;29.17;;
75939;SDS011;75809;44.872;20.642;2024-02-16T03:10:56;55.03;;;27.27;;
75939;SDS011;75809;44.872;20.642;2024-02-16T03:13:25;56.88;;;29.95;;
75939;SDS011;75809;44.872;20.642;2024-02-16T03:15:50;54.70;;;25.70;;
75939;SDS011;75809;44.872;20.642;2024-02-16T03:18:17;59.03;;;26.83;;
75939;SDS011;75809;44.872;20.642;2024-02-16T03:20:44;57.08;;;25.90;;
75939;SDS011;75809;44.872;20.642;2024-02-16T03:23:12;52.88;;;26.75;;
75939;SDS011;75809;44.872;20.642;2024-02-16T03:25:38;58.33;;;27.95;;
75939;SDS011;75809;44.872;20.642;2024-02-16T03:28:04;64.22;;;29.42;;
75939;SDS011;75809;44.872;20.642;2024-02-16T03:30:30;52.13;;;27.05;;
75939;SDS011;75809;44.872;20.642;2024-02-16T03:32:55;63.67;;;29.88;;
75939;SDS011;75809;44.872;20.642;2024-02-16T03:35:21;66.03;;;29.90;;
75939;SDS011;75809;44.872;20.642;2024-02-16T03:37:46;66.65;;;29.65;;
75939;SDS011;75809;44.872;20.642;2024-02-16T03:40:12;55.55;;;27.15;;
75939;SDS011;75809;44.872;20.642;2024-02-16T03:42:38;60.72;;;27.63;;
75939;SDS011;75809;44.872;20.642;2024-02-16T03:45:04;63.35;;;28.30;;
75939;SDS011;75809;44.872;20.642;2024-02-16T03:47:30;61.08;;;28.90;;
75939;SDS011;75809;44.872;20.642;2024-02-16T03:49:56;62.33;;;27.95;;
75939;SDS011;75809;44.872;20.642;2024-02-16T03:52:21;64.75;;;27.90;;
75939;SDS011;75809;44.872;20.642;2024-02-16T03:54:46;55.13;;;23.23;;
75939;SDS011;75809;44.872;20.642;2024-02-16T03:57:15;57.17;;;27.73;;
75939;SDS011;75809;44.872;20.642;2024-02-16T03:59:44;56.80;;;27.30;;
75939;SDS011;75809;44.872;20.642;2024-02-16T04:02:11;54.30;;;24.75;;
75939;SDS011;75809;44.872;20.642;2024-02-16T04:04:39;64.57;;;30.17;;
75939;SDS011;75809;44.872;20.642;2024-02-16T04:07:04;58.70;;;28.85;;
75939;SDS011;75809;44.872;20.642;2024-02-16T04:09:32;60.83;;;29.50;;
75939;SDS011;75809;44.872;20.642;2024-02-16T04:11:58;59.60;;;28.80;;
75939;SDS011;75809;44.872;20.642;2024-02-16T04:14:23;64.70;;;29.90;;
75939;SDS011;75809;44.872;20.642;2024-02-16T04:16:49;72.53;;;29.98;;
75939;SDS011;75809;44.872;20.642;2024-02-16T04:19:14;65.22;;;30.30;;
75939;SDS011;75809;44.872;20.642;2024-02-16T04:21:40;66.47;;;30.30;;
75939;SDS011;75809;44.872;20.642;2024-02-16T04:24:05;70.05;;;31.52;;
75939;SDS011;75809;44.872;20.642;2024-02-16T04:26:31;56.75;;;27.65;;
75939;SDS011;75809;44.872;20.642;2024-02-16T04:28:56;64.43;;;28.85;;
75939;SDS011;75809;44.872;20.642;2024-02-16T04:31:22;65.07;;;29.63;;
75939;SDS011;75809;44.872;20.642;2024-02-16T04:33:47;64.80;;;29.27;;
75939;SDS011;75809;44.872;20.642;2024-02-16T04:36:13;64.55;;;29.27;;
75939;SDS011;75809;44.872;20.642;2024-02-16T04:38:40;65.57;;;30.52;;
75939;SDS011;75809;44.872;20.642;2024-02-16T04:41:06;70.50;;;31.50;;
75939;SDS011;75809;44.872;20.642;2024-02-16T04:43:31;75.75;;;34.40;;
75939;SDS011;75809;44.872;20.642;2024-02-16T04:45:57;69.85;;;30.55;;
75939;SDS011;75809;44.872;20.642;2024-02-16T04:48:23;67.05;;;30.90;;
75939;SDS011;75809;44.872;20.642;2024-02-16T04:50:48;64.97;;;29.13;;
75939;SDS011;75809;44.872;20.642;2024-02-16T04:53:14;65.97;;;31.33;;
75939;SDS011;75809;44.872;20.642;2024-02-16T04:55:39;63.08;;;28.48;;
75939;SDS011;75809;44.872;20.642;2024-02-16T04:58:05;68.00;;;32.60;;
75939;SDS011;75809;44.872;20.642;2024-02-16T05:00:34;66.15;;;30.00;;
75939;SDS011;75809;44.872;20.642;2024-02-16T05:03:00;63.78;;;31.17;;
75939;SDS011;75809;44.872;20.642;2024-02-16T05:05:26;67.90;;;29.65;;
75939;SDS011;75809;44.872;20.642;2024-02-16T05:07:51;64.10;;;29.80;;
75939;SDS011;75809;44.872;20.642;2024-02-16T05:10:16;64.53;;;31.08;;
75939;SDS011;75809;44.872;20.642;2024-02-16T05:12:42;65.90;;;29.52;;
75939;SDS011;75809;44.872;20.642;2024-02-16T05:15:08;68.05;;;29.48;;
75939;SDS011;75809;44.872;20.642;2024-02-16T05:17:34;60.78;;;29.88;;
75939;SDS011;75809;44.872;20.642;2024-02-16T05:19:59;63.70;;;28.30;;
75939;SDS011;75809;44.872;20.642;2024-02-16T05:22:25;60.67;;;28.63;;
75939;SDS011;75809;44.872;20.642;2024-02-16T05:24:50;58.58;;;29.00;;
75939;SDS011;75809;44.872;20.642;2024-02-16T05:27:16;61.78;;;28.65;;
75939;SDS011;75809;44.872;20.642;2024-02-16T05:29:41;55.97;;;27.60;;
75939;SDS011;75809;44.872;20.642;2024-02-16T05:32:07;62.55;;;28.20;;
75939;SDS011;75809;44.872;20.642;2024-02-16T05:34:32;56.50;;;28.73;;
75939;SDS011;75809;44.872;20.642;2024-02-16T05:39:40;60.53;;;27.38;;
75939;SDS011;75809;44.872;20.642;2024-02-16T05:42:19;64.10;;;28.40;;
75939;SDS011;75809;44.872;20.642;2024-02-16T05:44:47;59.58;;;27.35;;
75939;SDS011;75809;44.872;20.642;2024-02-16T05:47:13;58.95;;;28.20;;
75939;SDS011;75809;44.872;20.642;2024-02-16T05:49:40;61.00;;;28.02;;
75939;SDS011;75809;44.872;20.642;2024-02-16T05:52:05;71.50;;;31.30;;
75939;SDS011;75809;44.872;20.642;2024-02-16T05:54:44;57.92;;;26.77;;
75939;SDS011;75809;44.872;20.642;2024-02-16T05:57:10;67.88;;;29.30;;
75939;SDS011;75809;44.872;20.642;2024-02-16T05:59:35;56.40;;;27.13;;
75939;SDS011;75809;44.872;20.642;2024-02-16T06:02:03;59.95;;;27.95;;
75939;SDS011;75809;44.872;20.642;2024-02-16T06:04:29;67.43;;;29.13;;
75939;SDS011;75809;44.872;20.642;2024-02-16T06:06:54;62.65;;;29.08;;
75939;SDS011;75809;44.872;20.642;2024-02-16T06:09:19;58.10;;;26.92;;
75939;SDS011;75809;44.872;20.642;2024-02-16T06:11:45;59.08;;;27.58;;
75939;SDS011;75809;44.872;20.642;2024-02-16T06:14:10;67.90;;;30.23;;
75939;SDS011;75809;44.872;20.642;2024-02-16T06:16:36;63.53;;;31.13;;
75939;SDS011;75809;44.872;20.642;2024-02-16T06:19:01;65.75;;;28.25;;
75939;SDS011;75809;44.872;20.642;2024-02-16T06:21:27;62.10;;;27.25;;
75939;SDS011;75809;44.872;20.642;2024-02-16T06:23:52;57.13;;;28.40;;
75939;SDS011;75809;44.872;20.642;2024-02-16T06:26:18;61.42;;;28.13;;
75939;SDS011;75809;44.872;20.642;2024-02-16T06:28:43;62.60;;;27.38;;
75939;SDS011;75809;44.872;20.642;2024-02-16T06:31:08;66.50;;;29.88;;
75939;SDS011;75809;44.872;20.642;2024-02-16T06:33:34;48.33;;;24.00;;
75939;SDS011;75809;44.872;20.642;2024-02-16T06:35:59;49.03;;;24.45;;
75939;SDS011;75809;44.872;20.642;2024-02-16T06:38:25;60.40;;;27.17;;
75939;SDS011;75809;44.872;20.642;2024-02-16T06:40:50;65.88;;;29.00;;
75939;SDS011;75809;44.872;20.642;2024-02-16T06:43:16;55.35;;;27.08;;
75939;SDS011;75809;44.872;20.642;2024-02-16T06:45:41;43.92;;;20.92;;
75939;SDS011;75809;44.872;20.642;2024-02-16T06:48:07;52.92;;;25.70;;
75939;SDS011;75809;44.872;20.642;2024-02-16T06:50:32;55.17;;;27.90;;
75939;SDS011;75809;44.872;20.642;2024-02-16T06:52:58;54.22;;;26.33;;
75939;SDS011;75809;44.872;20.642;2024-02-16T06:55:24;47.90;;;24.42;;
75939;SDS011;75809;44.872;20.642;2024-02-16T06:57:50;58.03;;;27.70;;
75939;SDS011;75809;44.872;20.642;2024-02-16T07:00:16;60.75;;;27.65;;
75939;SDS011;75809;44.872;20.642;2024-02-16T07:02:42;57.35;;;30.15;;
75939;SDS011;75809;44.872;20.642;2024-02-16T07:05:08;47.83;;;24.65;;
75939;SDS011;75809;44.872;20.642;2024-02-16T07:07:33;57.45;;;27.48;;
75939;SDS011;75809;44.872;20.642;2024-02-16T07:10:01;59.00;;;27.15;;
75939;SDS011;75809;44.872;20.642;2024-02-16T07:12:27;54.08;;;26.25;;
75939;SDS011;75809;44.872;20.642;2024-02-16T07:14:52;59.22;;;27.63;;
75939;SDS011;75809;44.872;20.642;2024-02-16T07:17:18;56.35;;;26.92;;
75939;SDS011;75809;44.872;20.642;2024-02-16T07:19:44;61.45;;;27.13;;
75939;SDS011;75809;44.872;20.642;2024-02-16T07:22:09;61.72;;;28.10;;
75939;SDS011;75809;44.872;20.642;2024-02-16T07:24:35;56.17;;;28.33;;
75939;SDS011;75809;44.872;20.642;2024-02-16T07:27:00;60.97;;;29.20;;
75939;SDS011;75809;44.872;20.642;2024-02-16T07:29:27;54.22;;;26.45;;
75939;SDS011;75809;44.872;20.642;2024-02-16T07:31:53;65.55;;;28.35;;
75939;SDS011;75809;44.872;20.642;2024-02-16T07:34:18;55.95;;;27.55;;
75939;SDS011;75809;44.872;20.642;2024-02-16T07:36:44;63.05;;;28.90;;
75939;SDS011;75809;44.872;20.642;2024-02-16T07:39:10;60.85;;;29.88;;
75939;SDS011;75809;44.872;20.642;2024-02-16T07:41:37;62.25;;;27.98;;
75939;SDS011;75809;44.872;20.642;2024-02-16T07:44:03;63.72;;;28.00;;
75939;SDS011;75809;44.872;20.642;2024-02-16T07:46:29;57.88;;;27.00;;
75939;SDS011;75809;44.872;20.642;2024-02-16T07:48:55;53.92;;;26.58;;
75939;SDS011;75809;44.872;20.642;2024-02-16T07:51:21;66.05;;;28.65;;
75939;SDS011;75809;44.872;20.642;2024-02-16T07:53:46;52.22;;;27.27;;
75939;SDS011;75809;44.872;20.642;2024-02-16T07:56:12;55.33;;;29.15;;
75939;SDS011;75809;44.872;20.642;2024-02-16T07:58:38;51.75;;;25.35;;
75939;SDS011;75809;44.872;20.642;2024-02-16T08:01:07;50.63;;;24.80;;
75939;SDS011;75809;44.872;20.642;2024-02-16T08:03:32;53.15;;;25.95;;
75939;SDS011;75809;44.872;20.642;2024-02-16T08:05:58;49.50;;;24.65;;
75939;SDS011;75809;44.872;20.642;2024-02-16T08:08:24;46.88;;;23.33;;
75939;SDS011;75809;44.872;20.642;2024-02-16T08:10:50;53.17;;;24.35;;
75939;SDS011;75809;44.872;20.642;2024-02-16T08:13:16;48.58;;;23.02;;
75939;SDS011;75809;44.872;20.642;2024-02-16T08:15:42;47.63;;;22.65;;
75939;SDS011;75809;44.872;20.642;2024-02-16T08:18:07;47.47;;;22.63;;
75939;SDS011;75809;44.872;20.642;2024-02-16T08:20:32;51.63;;;26.80;;
75939;SDS011;75809;44.872;20.642;2024-02-16T08:22:58;52.00;;;24.00;;
75939;SDS011;75809;44.872;20.642;2024-02-16T08:25:24;49.03;;;24.50;;
75939;SDS011;75809;44.872;20.642;2024-02-16T08:27:49;48.15;;;24.48;;
75939;SDS011;75809;44.872;20.642;2024-02-16T08:30:15;47.35;;;24.67;;
75939;SDS011;75809;44.872;20.642;2024-02-16T08:32:41;49.70;;;24.02;;
75939;SDS011;75809;44.872;20.642;2024-02-16T08:35:06;50.63;;;23.83;;
75939;SDS011;75809;44.872;20.642;2024-02-16T08:37:32;43.58;;;23.50;;
75939;SDS011;75809;44.872;20.642;2024-02-16T08:39:58;50.33;;;24.25;;
75939;SDS011;75809;44.872;20.642;2024-02-16T08:42:24;53.55;;;24.80;;
75939;SDS011;75809;44.872;20.642;2024-02-16T08:44:49;53.78;;;24.95;;
75939;SDS011;75809;44.872;20.642;2024-02-16T08:47:15;52.13;;;24.55;;
75939;SDS011;75809;44.872;20.642;2024-02-16T08:49:41;45.90;;;23.17;;
75939;SDS011;75809;44.872;20.642;2024-02-16T08:52:07;45.35;;;22.73;;
75939;SDS011;75809;44.872;20.642;2024-02-16T08:54:33;55.63;;;24.20;;
75939;SDS011;75809;44.872;20.642;2024-02-16T08:56:58;48.13;;;26.67;;
75939;SDS011;75809;44.872;20.642;2024-02-16T08:59:24;50.63;;;26.45;;
75939;SDS011;75809;44.872;20.642;2024-02-16T09:01:51;45.97;;;22.52;;
75939;SDS011;75809;44.872;20.642;2024-02-16T09:04:17;49.05;;;23.95;;
75939;SDS011;75809;44.872;20.642;2024-02-16T09:06:42;45.50;;;22.90;;
75939;SDS011;75809;44.872;20.642;2024-02-16T09:09:08;46.20;;;22.10;;
75939;SDS011;75809;44.872;20.642;2024-02-16T09:11:33;48.75;;;26.08;;
75939;SDS011;75809;44.872;20.642;2024-02-16T09:13:59;46.30;;;23.20;;
75939;SDS011;75809;44.872;20.642;2024-02-16T09:16:25;46.58;;;23.45;;
75939;SDS011;75809;44.872;20.642;2024-02-16T09:18:51;54.13;;;22.90;;
75939;SDS011;75809;44.872;20.642;2024-02-16T09:21:16;51.55;;;24.50;;
75939;SDS011;75809;44.872;20.642;2024-02-16T09:23:42;41.38;;;21.98;;
75939;SDS011;75809;44.872;20.642;2024-02-16T09:26:07;43.78;;;22.70;;
75939;SDS011;75809;44.872;20.642;2024-02-16T09:28:39;41.83;;;21.60;;
75939;SDS011;75809;44.872;20.642;2024-02-16T09:31:06;43.08;;;22.88;;
75939;SDS011;75809;44.872;20.642;2024-02-16T09:33:33;38.95;;;19.40;;
75939;SDS011;75809;44.872;20.642;2024-02-16T09:35:58;40.38;;;20.70;;
75939;SDS011;75809;44.872;20.642;2024-02-16T09:38:24;43.45;;;20.17;;
75939;SDS011;75809;44.872;20.642;2024-02-16T09:40:50;45.95;;;22.60;;
75939;SDS011;75809;44.872;20.642;2024-02-16T09:43:25;46.15;;;22.27;;
75939;SDS011;75809;44.872;20.642;2024-02-16T09:45:58;46.08;;;21.48;;
75939;SDS011;75809;44.872;20.642;2024-02-16T09:48:27;40.05;;;20.65;;
75939;SDS011;75809;44.872;20.642;2024-02-16T09:50:53;42.38;;;21.40;;
75939;SDS011;75809;44.872;20.642;2024-02-16T09:53:20;42.33;;;20.20;;
75939;SDS011;75809;44.872;20.642;2024-02-16T09:55:49;38.88;;;21.00;;
75939;SDS011;75809;44.872;20.642;2024-02-16T09:58:15;41.20;;;21.98;;
75939;SDS011;75809;44.872;20.642;2024-02-16T10:00:52;41.83;;;20.85;;
75939;SDS011;75809;44.872;20.642;2024-02-16T10:05:52;38.45;;;19.00;;
75939;SDS011;75809;44.872;20.642;2024-02-16T10:08:29;36.17;;;18.95;;
75939;SDS011;75809;44.872;20.642;2024-02-16T10:11:02;40.60;;;19.80;;
75939;SDS011;75809;44.872;20.642;2024-02-16T10:13:28;36.35;;;18.10;;
75939;SDS011;75809;44.872;20.642;2024-02-16T10:16:03;39.85;;;17.52;;
75939;SDS011;75809;44.872;20.642;2024-02-16T10:18:35;30.52;;;17.48;;
75939;SDS011;75809;44.872;20.642;2024-02-16T10:21:01;33.92;;;16.15;;
75939;SDS011;75809;44.872;20.642;2024-02-16T10:23:26;38.50;;;17.50;;
75939;SDS011;75809;44.872;20.642;2024-02-16T10:25:53;29.17;;;14.63;;
75939;SDS011;75809;44.872;20.642;2024-02-16T10:28:19;27.83;;;14.20;;
75939;SDS011;75809;44.872;20.642;2024-02-16T10:30:52;29.45;;;13.70;;
75939;SDS011;75809;44.872;20.642;2024-02-16T10:33:22;29.98;;;15.25;;
75939;SDS011;75809;44.872;20.642;2024-02-16T10:35:49;29.02;;;15.45;;
75939;SDS011;75809;44.872;20.642;2024-02-16T10:38:16;28.00;;;14.70;;
75939;SDS011;75809;44.872;20.642;2024-02-16T10:40:43;30.75;;;15.85;;
75939;SDS011;75809;44.872;20.642;2024-02-16T10:43:10;29.42;;;15.13;;
75939;SDS011;75809;44.872;20.642;2024-02-16T10:45:38;31.52;;;15.13;;
75939;SDS011;75809;44.872;20.642;2024-02-16T10:48:05;27.92;;;15.10;;
75939;SDS011;75809;44.872;20.642;2024-02-16T10:50:33;30.73;;;14.52;;
75939;SDS011;75809;44.872;20.642;2024-02-16T10:53:03;33.53;;;16.08;;
75939;SDS011;75809;44.872;20.642;2024-02-16T10:55:33;28.17;;;14.50;;
75939;SDS011;75809;44.872;20.642;2024-02-16T10:57:59;30.25;;;15.90;;
75939;SDS011;75809;44.872;20.642;2024-02-16T11:00:25;33.13;;;14.77;;
75939;SDS011;75809;44.872;20.642;2024-02-16T11:02:57;28.42;;;15.30;;
75939;SDS011;75809;44.872;20.642;2024-02-16T11:05:35;28.92;;;13.35;;
75939;SDS011;75809;44.872;20.642;2024-02-16T11:08:11;35.15;;;16.17;;
75939;SDS011;75809;44.872;20.642;2024-02-16T11:10:38;27.63;;;14.30;;
75939;SDS011;75809;44.872;20.642;2024-02-16T11:13:04;27.25;;;12.45;;
75939;SDS011;75809;44.872;20.642;2024-02-16T11:15:30;29.20;;;14.45;;
75939;SDS011;75809;44.872;20.642;2024-02-16T11:17:57;27.60;;;12.95;;
75939;SDS011;75809;44.872;20.642;2024-02-16T11:20:26;28.60;;;13.75;;
75939;SDS011;75809;44.872;20.642;2024-02-16T11:22:52;26.88;;;13.32;;
75939;SDS011;75809;44.872;20.642;2024-02-16T11:25:19;29.08;;;13.60;;
75939;SDS011;75809;44.872;20.642;2024-02-16T11:27:55;29.00;;;13.38;;
75939;SDS011;75809;44.872;20.642;2024-02-16T11:30:20;30.15;;;13.70;;
75939;SDS011;75809;44.872;20.642;2024-02-16T11:32:46;28.42;;;13.27;;
75939;SDS011;75809;44.872;20.642;2024-02-16T11:35:11;31.27;;;14.27;;
75939;SDS011;75809;44.872;20.642;2024-02-16T11:37:37;31.30;;;15.25;;
75939;SDS011;75809;44.872;20.642;2024-02-16T11:40:03;31.42;;;14.20;;
75939;SDS011;75809;44.872;20.642;2024-02-16T11:42:33;26.65;;;13.40;;
75939;SDS011;75809;44.872;20.642;2024-02-16T11:44:59;26.48;;;12.50;;
75939;SDS011;75809;44.872;20.642;2024-02-16T11:47:25;25.50;;;12.13;;
75939;SDS011;75809;44.872;20.642;2024-02-16T11:50:04;23.77;;;11.85;;
75939;SDS011;75809;44.872;20.642;2024-02-16T11:52:43;29.42;;;12.32;;
75939;SDS011;75809;44.872;20.642;2024-02-16T11:55:09;25.02;;;12.93;;
75939;SDS011;75809;44.872;20.642;2024-02-16T11:57:36;27.58;;;11.70;;
75939;SDS011;75809;44.872;20.642;2024-02-16T12:00:03;26.80;;;11.15;;
75939;SDS011;75809;44.872;20.642;2024-02-16T12:02:34;19.92;;;9.82;;
75939;SDS011;75809;44.872;20.642;2024-02-16T12:05:00;21.40;;;10.43;;
75939;SDS011;75809;44.872;20.642;2024-02-16T12:07:26;23.92;;;12.00;;
75939;SDS011;75809;44.872;20.642;2024-02-16T12:09:58;20.67;;;10.18;;
75939;SDS011;75809;44.872;20.642;2024-02-16T12:12:25;21.60;;;10.95;;
75939;SDS011;75809;44.872;20.642;2024-02-16T12:14:52;24.38;;;10.48;;
75939;SDS011;75809;44.872;20.642;2024-02-16T12:17:18;23.15;;;10.43;;
75939;SDS011;75809;44.872;20.642;2024-02-16T12:19:44;23.60;;;11.75;;
75939;SDS011;75809;44.872;20.642;2024-02-16T12:22:11;20.90;;;9.95;;
75939;SDS011;75809;44.872;20.642;2024-02-16T12:24:44;18.83;;;10.10;;
75939;SDS011;75809;44.872;20.642;2024-02-16T12:27:11;18.90;;;9.85;;
75939;SDS011;75809;44.872;20.642;2024-02-16T12:29:37;18.65;;;9.27;;
75939;SDS011;75809;44.872;20.642;2024-02-16T12:32:04;20.33;;;10.48;;
75939;SDS011;75809;44.872;20.642;2024-02-16T12:34:30;13.30;;;5.97;;
75939;SDS011;75809;44.872;20.642;2024-02-16T12:36:56;18.38;;;8.35;;
75939;SDS011;75809;44.872;20.642;2024-02-16T12:39:21;14.70;;;7.40;;
75939;SDS011;75809;44.872;20.642;2024-02-16T12:41:47;17.75;;;8.70;;
75939;SDS011;75809;44.872;20.642;2024-02-16T12:44:14;19.13;;;8.88;;
75939;SDS011;75809;44.872;20.642;2024-02-16T12:46:39;18.60;;;7.85;;
75939;SDS011;75809;44.872;20.642;2024-02-16T12:49:05;14.02;;;6.95;;
75939;SDS011;75809;44.872;20.642;2024-02-16T12:51:32;14.73;;;7.20;;
75939;SDS011;75809;44.872;20.642;2024-02-16T12:53:57;18.20;;;7.68;;
75939;SDS011;75809;44.872;20.642;2024-02-16T12:56:23;20.17;;;7.97;;
75939;SDS011;75809;44.872;20.642;2024-02-16T12:58:48;12.02;;;5.85;;
75939;SDS011;75809;44.872;20.642;2024-02-16T13:01:14;13.27;;;6.40;;
75939;SDS011;75809;44.872;20.642;2024-02-16T13:03:42;16.73;;;7.60;;
75939;SDS011;75809;44.872;20.642;2024-02-16T13:06:08;15.65;;;7.38;;
75939;SDS011;75809;44.872;20.642;2024-02-16T13:08:34;14.23;;;6.82;;
75939;SDS011;75809;44.872;20.642;2024-02-16T13:10:59;15.52;;;7.32;;
75939;SDS011;75809;44.872;20.642;2024-02-16T13:13:25;15.73;;;7.30;;
75939;SDS011;75809;44.872;20.642;2024-02-16T13:15:50;15.45;;;7.85;;
75939;SDS011;75809;44.872;20.642;2024-02-16T13:18:16;18.45;;;9.40;;
75939;SDS011;75809;44.872;20.642;2024-02-16T13:20:42;17.30;;;8.48;;
75939;SDS011;75809;44.872;20.642;2024-02-16T13:23:09;22.05;;;10.55;;
75939;SDS011;75809;44.872;20.642;2024-02-16T13:25:35;15.20;;;8.23;;
75939;SDS011;75809;44.872;20.642;2024-02-16T13:28:01;17.08;;;8.35;;
75939;SDS011;75809;44.872;20.642;2024-02-16T13:30:27;16.05;;;7.78;;
75939;SDS011;75809;44.872;20.642;2024-02-16T13:35:21;15.25;;;8.32;;
75939;SDS011;75809;44.872;20.642;2024-02-16T13:37:47;17.92;;;9.50;;
75939;SDS011;75809;44.872;20.642;2024-02-16T13:40:13;23.00;;;9.20;;
75939;SDS011;75809;44.872;20.642;2024-02-16T13:42:39;19.45;;;9.90;;
75939;SDS011;75809;44.872;20.642;2024-02-16T13:45:05;18.38;;;8.95;;
75939;SDS011;75809;44.872;20.642;2024-02-16T13:47:31;16.77;;;7.53;;
75939;SDS011;75809;44.872;20.642;2024-02-16T13:49:57;16.58;;;8.68;;
75939;SDS011;75809;44.872;20.642;2024-02-16T13:52:24;14.23;;;7.18;;
75939;SDS011;75809;44.872;20.642;2024-02-16T13:54:50;17.90;;;8.07;;
75939;SDS011;75809;44.872;20.642;2024-02-16T13:57:17;15.15;;;8.02;;
75939;SDS011;75809;44.872;20.642;2024-02-16T13:59:42;17.60;;;7.90;;
75939;SDS011;75809;44.872;20.642;2024-02-16T14:02:08;14.48;;;8.52;;
75939;SDS011;75809;44.872;20.642;2024-02-16T14:04:34;16.00;;;8.25;;
75939;SDS011;75809;44.872;20.642;2024-02-16T14:07:01;15.20;;;8.35;;
75939;SDS011;75809;44.872;20.642;2024-02-16T14:09:26;17.10;;;8.25;;
75939;SDS011;75809;44.872;20.642;2024-02-16T14:11:52;17.48;;;8.30;;